sensor_id;sensor_type;location;lat;lon;timestamp;P1;durP1;ratioP1;P2;durP2;ratioP2
61487;SDS011;47351;53.326;-6.298;2022-08-30T00:03:29;9.40;;;1.60;;
61487;SDS011;47351;53.326;-6.298;2022-08-30T00:06:24;7.90;;;1.40;;
61487;SDS011;47351;53.326;-6.298;2022-08-30T00:13:19;8.50;;;1.60;;
61487;SDS011;47351;53.326;-6.298;2022-08-30T00:24:31;8.10;;;1.50;;
61487;SDS011;47351;53.326;-6.298;2022-08-30T00:31:41;8.00;;;1.80;;
61487;SDS011;47351;53.326;-6.298;2022-08-30T00:34:34;13.10;;;1.80;;
61487;SDS011;47351;53.326;-6.298;2022-08-30T00:41:54;9.40;;;1.80;;
61487;SDS011;47351;53.326;-6.298;2022-08-30T00:49:50;8.90;;;1.70;;
61487;SDS011;47351;53.326;-6.298;2022-08-30T00:52:38;8.40;;;1.80;;
61487;SDS011;47351;53.326;-6.298;2022-08-30T00:55:39;13.50;;;2.00;;
61487;SDS011;47351;53.326;-6.298;2022-08-30T00:58:26;10.40;;;1.70;;
61487;SDS011;47351;53.326;-6.298;2022-08-30T01:01:41;17.10;;;2.00;;
61487;SDS011;47351;53.326;-6.298;2022-08-30T01:08:56;11.10;;;1.90;;
61487;SDS011;47351;53.326;-6.298;2022-08-30T01:21:40;9.60;;;1.70;;
61487;SDS011;47351;53.326;-6.298;2022-08-30T01:24:39;10.00;;;2.10;;
61487;SDS011;47351;53.326;-6.298;2022-08-30T01:32:27;9.50;;;1.90;;
61487;SDS011;47351;53.326;-6.298;2022-08-30T01:38:40;14.40;;;2.00;;
61487;SDS011;47351;53.326;-6.298;2022-08-30T01:46:19;12.70;;;2.40;;
61487;SDS011;47351;53.326;-6.298;2022-08-30T01:49:23;11.90;;;1.80;;
61487;SDS011;47351;53.326;-6.298;2022-08-30T01:56:38;7.30;;;1.70;;
61487;SDS011;47351;53.326;-6.298;2022-08-30T02:11:29;10.70;;;1.80;;
61487;SDS011;47351;53.326;-6.298;2022-08-30T02:26:11;12.00;;;2.30;;
61487;SDS011;47351;53.326;-6.298;2022-08-30T02:28:52;8.00;;;2.00;;
61487;SDS011;47351;53.326;-6.298;2022-08-30T02:31:52;12.60;;;2.30;;
61487;SDS011;47351;53.326;-6.298;2022-08-30T02:43:03;12.10;;;2.50;;
61487;SDS011;47351;53.326;-6.298;2022-08-30T02:45:47;10.30;;;2.20;;
61487;SDS011;47351;53.326;-6.298;2022-08-30T02:48:45;9.00;;;2.20;;
61487;SDS011;47351;53.326;-6.298;2022-08-30T02:51:55;12.60;;;2.00;;
61487;SDS011;47351;53.326;-6.298;2022-08-30T02:58:25;11.00;;;2.30;;
61487;SDS011;47351;53.326;-6.298;2022-08-30T03:05:28;9.90;;;2.80;;
61487;SDS011;47351;53.326;-6.298;2022-08-30T03:08:29;7.30;;;2.30;;
61487;SDS011;47351;53.326;-6.298;2022-08-30T03:11:19;8.50;;;2.60;;
61487;SDS011;47351;53.326;-6.298;2022-08-30T03:14:23;10.80;;;2.50;;
61487;SDS011;47351;53.326;-6.298;2022-08-30T03:17:21;14.90;;;3.20;;
61487;SDS011;47351;53.326;-6.298;2022-08-30T03:25:03;9.50;;;3.00;;
61487;SDS011;47351;53.326;-6.298;2022-08-30T03:34:23;7.70;;;3.10;;
61487;SDS011;47351;53.326;-6.298;2022-08-30T03:37:19;9.60;;;3.20;;
61487;SDS011;47351;53.326;-6.298;2022-08-30T03:40:44;8.50;;;3.10;;
61487;SDS011;47351;53.326;-6.298;2022-08-30T03:43:23;8.50;;;3.20;;
61487;SDS011;47351;53.326;-6.298;2022-08-30T03:49:42;8.20;;;3.40;;
61487;SDS011;47351;53.326;-6.298;2022-08-30T03:52:44;10.40;;;3.60;;
61487;SDS011;47351;53.326;-6.298;2022-08-30T03:56:06;8.30;;;3.30;;
61487;SDS011;47351;53.326;-6.298;2022-08-30T03:59:16;10.00;;;3.50;;
61487;SDS011;47351;53.326;-6.298;2022-08-30T04:01:45;10.80;;;3.60;;
61487;SDS011;47351;53.326;-6.298;2022-08-30T04:09:16;9.20;;;3.60;;
61487;SDS011;47351;53.326;-6.298;2022-08-30T04:16:30;10.40;;;4.00;;
61487;SDS011;47351;53.326;-6.298;2022-08-30T04:24:00;10.90;;;4.00;;
61487;SDS011;47351;53.326;-6.298;2022-08-30T04:29:47;8.90;;;3.80;;
61487;SDS011;47351;53.326;-6.298;2022-08-30T04:33:03;8.20;;;3.40;;
61487;SDS011;47351;53.326;-6.298;2022-08-30T04:36:12;8.80;;;3.90;;
61487;SDS011;47351;53.326;-6.298;2022-08-30T04:39:29;11.60;;;3.80;;
61487;SDS011;47351;53.326;-6.298;2022-08-30T04:42:28;7.50;;;3.60;;
61487;SDS011;47351;53.326;-6.298;2022-08-30T04:49:54;10.70;;;3.70;;
61487;SDS011;47351;53.326;-6.298;2022-08-30T04:56:30;4.60;;;3.10;;
61487;SDS011;47351;53.326;-6.298;2022-08-30T04:59:25;8.30;;;3.40;;
61487;SDS011;47351;53.326;-6.298;2022-08-30T05:06:34;7.20;;;3.20;;
61487;SDS011;47351;53.326;-6.298;2022-08-30T05:09:26;5.50;;;2.90;;
61487;SDS011;47351;53.326;-6.298;2022-08-30T05:12:04;6.70;;;3.20;;
61487;SDS011;47351;53.326;-6.298;2022-08-30T05:14:56;6.30;;;2.90;;
61487;SDS011;47351;53.326;-6.298;2022-08-30T05:18:09;7.20;;;3.10;;
61487;SDS011;47351;53.326;-6.298;2022-08-30T05:21:30;11.80;;;4.50;;
61487;SDS011;47351;53.326;-6.298;2022-08-30T05:24:19;8.10;;;3.40;;
61487;SDS011;47351;53.326;-6.298;2022-08-30T05:35:46;6.50;;;3.20;;
61487;SDS011;47351;53.326;-6.298;2022-08-30T05:39:01;7.40;;;3.10;;
61487;SDS011;47351;53.326;-6.298;2022-08-30T05:41:57;7.20;;;3.10;;
61487;SDS011;47351;53.326;-6.298;2022-08-30T05:44:31;8.60;;;3.00;;
61487;SDS011;47351;53.326;-6.298;2022-08-30T05:47:45;7.50;;;2.90;;
61487;SDS011;47351;53.326;-6.298;2022-08-30T05:51:02;7.90;;;2.80;;
61487;SDS011;47351;53.326;-6.298;2022-08-30T05:54:15;7.10;;;2.70;;
61487;SDS011;47351;53.326;-6.298;2022-08-30T05:57:05;8.20;;;2.50;;
61487;SDS011;47351;53.326;-6.298;2022-08-30T05:59:48;6.20;;;2.40;;
61487;SDS011;47351;53.326;-6.298;2022-08-30T06:06:34;5.90;;;2.10;;
61487;SDS011;47351;53.326;-6.298;2022-08-30T06:09:47;8.10;;;2.50;;
61487;SDS011;47351;53.326;-6.298;2022-08-30T06:16:02;3.80;;;2.40;;
61487;SDS011;47351;53.326;-6.298;2022-08-30T06:18:57;5.50;;;2.20;;
61487;SDS011;47351;53.326;-6.298;2022-08-30T06:21:38;6.90;;;2.60;;
61487;SDS011;47351;53.326;-6.298;2022-08-30T06:24:16;6.30;;;2.50;;
61487;SDS011;47351;53.326;-6.298;2022-08-30T06:27:21;7.50;;;2.40;;
61487;SDS011;47351;53.326;-6.298;2022-08-30T06:30:28;7.60;;;2.40;;
61487;SDS011;47351;53.326;-6.298;2022-08-30T06:33:07;7.90;;;2.80;;
61487;SDS011;47351;53.326;-6.298;2022-08-30T06:36:15;5.70;;;2.60;;
61487;SDS011;47351;53.326;-6.298;2022-08-30T06:40:06;7.90;;;2.90;;
61487;SDS011;47351;53.326;-6.298;2022-08-30T06:42:38;8.50;;;3.00;;
61487;SDS011;47351;53.326;-6.298;2022-08-30T06:48:50;6.20;;;2.70;;
61487;SDS011;47351;53.326;-6.298;2022-08-30T06:51:40;7.20;;;2.50;;
61487;SDS011;47351;53.326;-6.298;2022-08-30T06:54:48;5.30;;;2.20;;
61487;SDS011;47351;53.326;-6.298;2022-08-30T07:02:20;5.40;;;1.90;;
61487;SDS011;47351;53.326;-6.298;2022-08-30T07:05:08;7.10;;;2.00;;
61487;SDS011;47351;53.326;-6.298;2022-08-30T07:07:52;7.50;;;2.10;;
61487;SDS011;47351;53.326;-6.298;2022-08-30T07:19:28;7.00;;;1.60;;
61487;SDS011;47351;53.326;-6.298;2022-08-30T07:22:26;4.40;;;1.40;;
61487;SDS011;47351;53.326;-6.298;2022-08-30T07:25:04;4.30;;;1.30;;
61487;SDS011;47351;53.326;-6.298;2022-08-30T07:27:36;4.10;;;1.30;;
61487;SDS011;47351;53.326;-6.298;2022-08-30T07:30:06;3.60;;;1.30;;
61487;SDS011;47351;53.326;-6.298;2022-08-30T07:32:47;4.20;;;1.60;;
61487;SDS011;47351;53.326;-6.298;2022-08-30T07:35:17;3.70;;;1.50;;
61487;SDS011;47351;53.326;-6.298;2022-08-30T07:37:46;4.70;;;1.50;;
61487;SDS011;47351;53.326;-6.298;2022-08-30T07:40:16;3.80;;;1.50;;
61487;SDS011;47351;53.326;-6.298;2022-08-30T07:42:45;5.80;;;1.30;;
61487;SDS011;47351;53.326;-6.298;2022-08-30T07:45:17;3.00;;;1.30;;
61487;SDS011;47351;53.326;-6.298;2022-08-30T07:47:49;6.60;;;1.20;;
61487;SDS011;47351;53.326;-6.298;2022-08-30T07:50:19;3.60;;;1.00;;
61487;SDS011;47351;53.326;-6.298;2022-08-30T07:52:54;4.20;;;1.00;;
61487;SDS011;47351;53.326;-6.298;2022-08-30T07:56:06;2.80;;;0.80;;
61487;SDS011;47351;53.326;-6.298;2022-08-30T07:58:35;2.00;;;0.90;;
61487;SDS011;47351;53.326;-6.298;2022-08-30T08:01:06;3.60;;;1.00;;
61487;SDS011;47351;53.326;-6.298;2022-08-30T08:03:38;1.80;;;0.80;;
61487;SDS011;47351;53.326;-6.298;2022-08-30T08:06:10;3.30;;;0.70;;
61487;SDS011;47351;53.326;-6.298;2022-08-30T08:08:41;2.80;;;0.90;;
61487;SDS011;47351;53.326;-6.298;2022-08-30T08:11:12;3.30;;;0.70;;
61487;SDS011;47351;53.326;-6.298;2022-08-30T08:13:45;2.00;;;0.60;;
61487;SDS011;47351;53.326;-6.298;2022-08-30T08:16:21;3.50;;;0.70;;
61487;SDS011;47351;53.326;-6.298;2022-08-30T08:18:52;2.70;;;0.60;;
61487;SDS011;47351;53.326;-6.298;2022-08-30T08:21:39;2.90;;;0.70;;
61487;SDS011;47351;53.326;-6.298;2022-08-30T08:24:26;1.10;;;0.60;;
61487;SDS011;47351;53.326;-6.298;2022-08-30T08:27:13;3.20;;;0.80;;
61487;SDS011;47351;53.326;-6.298;2022-08-30T08:30:05;2.30;;;0.50;;
61487;SDS011;47351;53.326;-6.298;2022-08-30T08:32:53;1.90;;;0.60;;
61487;SDS011;47351;53.326;-6.298;2022-08-30T08:35:41;1.70;;;0.60;;
61487;SDS011;47351;53.326;-6.298;2022-08-30T08:38:27;1.70;;;0.50;;
61487;SDS011;47351;53.326;-6.298;2022-08-30T08:44:27;3.00;;;0.80;;
61487;SDS011;47351;53.326;-6.298;2022-08-30T08:47:48;3.20;;;0.60;;
61487;SDS011;47351;53.326;-6.298;2022-08-30T08:51:12;2.50;;;0.40;;
61487;SDS011;47351;53.326;-6.298;2022-08-30T08:54:56;1.90;;;0.50;;
61487;SDS011;47351;53.326;-6.298;2022-08-30T08:59:04;13.60;;;1.40;;
61487;SDS011;47351;53.326;-6.298;2022-08-30T09:02:35;1.80;;;0.50;;
61487;SDS011;47351;53.326;-6.298;2022-08-30T09:05:09;3.70;;;0.50;;
61487;SDS011;47351;53.326;-6.298;2022-08-30T09:07:42;0.80;;;0.30;;
61487;SDS011;47351;53.326;-6.298;2022-08-30T09:10:14;2.80;;;0.50;;
61487;SDS011;47351;53.326;-6.298;2022-08-30T09:12:56;2.70;;;0.40;;
61487;SDS011;47351;53.326;-6.298;2022-08-30T09:15:32;1.80;;;0.60;;
61487;SDS011;47351;53.326;-6.298;2022-08-30T09:18:05;2.00;;;0.60;;
61487;SDS011;47351;53.326;-6.298;2022-08-30T09:20:49;42.80;;;3.10;;
61487;SDS011;47351;53.326;-6.298;2022-08-30T09:23:23;10.50;;;0.90;;
61487;SDS011;47351;53.326;-6.298;2022-08-30T09:25:54;8.90;;;0.60;;
61487;SDS011;47351;53.326;-6.298;2022-08-30T09:28:26;1.60;;;0.30;;
61487;SDS011;47351;53.326;-6.298;2022-08-30T09:30:58;1.00;;;0.30;;
61487;SDS011;47351;53.326;-6.298;2022-08-30T09:33:35;0.50;;;0.30;;
61487;SDS011;47351;53.326;-6.298;2022-08-30T09:36:09;1.30;;;0.40;;
61487;SDS011;47351;53.326;-6.298;2022-08-30T09:38:46;1.20;;;0.40;;
61487;SDS011;47351;53.326;-6.298;2022-08-30T09:41:26;1.50;;;0.30;;
61487;SDS011;47351;53.326;-6.298;2022-08-30T09:44:04;1.40;;;0.40;;
61487;SDS011;47351;53.326;-6.298;2022-08-30T09:46:42;0.70;;;0.30;;
61487;SDS011;47351;53.326;-6.298;2022-08-30T09:49:28;0.50;;;0.30;;
61487;SDS011;47351;53.326;-6.298;2022-08-30T09:52:03;0.60;;;0.40;;
61487;SDS011;47351;53.326;-6.298;2022-08-30T09:54:46;2.90;;;0.50;;
61487;SDS011;47351;53.326;-6.298;2022-08-30T09:57:30;0.90;;;0.40;;
61487;SDS011;47351;53.326;-6.298;2022-08-30T10:00:11;2.10;;;0.40;;
61487;SDS011;47351;53.326;-6.298;2022-08-30T10:02:53;1.20;;;0.50;;
61487;SDS011;47351;53.326;-6.298;2022-08-30T10:05:33;3.30;;;0.50;;
61487;SDS011;47351;53.326;-6.298;2022-08-30T10:08:13;1.60;;;0.40;;
61487;SDS011;47351;53.326;-6.298;2022-08-30T10:10:53;1.90;;;0.40;;
61487;SDS011;47351;53.326;-6.298;2022-08-30T10:13:52;2.30;;;0.40;;
61487;SDS011;47351;53.326;-6.298;2022-08-30T10:16:41;1.90;;;0.40;;
61487;SDS011;47351;53.326;-6.298;2022-08-30T10:19:30;0.80;;;0.40;;
61487;SDS011;47351;53.326;-6.298;2022-08-30T10:22:10;1.70;;;0.50;;
61487;SDS011;47351;53.326;-6.298;2022-08-30T10:24:52;1.90;;;0.50;;
61487;SDS011;47351;53.326;-6.298;2022-08-30T10:27:27;1.70;;;0.50;;
61487;SDS011;47351;53.326;-6.298;2022-08-30T10:30:03;1.50;;;0.50;;
61487;SDS011;47351;53.326;-6.298;2022-08-30T10:32:40;3.70;;;0.70;;
61487;SDS011;47351;53.326;-6.298;2022-08-30T10:35:18;3.60;;;0.60;;
61487;SDS011;47351;53.326;-6.298;2022-08-30T10:37:50;1.70;;;0.30;;
61487;SDS011;47351;53.326;-6.298;2022-08-30T10:40:24;2.60;;;0.60;;
61487;SDS011;47351;53.326;-6.298;2022-08-30T10:43:20;1.00;;;0.40;;
61487;SDS011;47351;53.326;-6.298;2022-08-30T10:45:59;1.80;;;0.50;;
61487;SDS011;47351;53.326;-6.298;2022-08-30T10:48:33;1.60;;;0.50;;
61487;SDS011;47351;53.326;-6.298;2022-08-30T10:51:13;2.50;;;0.40;;
61487;SDS011;47351;53.326;-6.298;2022-08-30T10:53:51;1.50;;;0.50;;
61487;SDS011;47351;53.326;-6.298;2022-08-30T10:56:26;1.90;;;0.30;;
61487;SDS011;47351;53.326;-6.298;2022-08-30T10:58:58;2.30;;;0.60;;
61487;SDS011;47351;53.326;-6.298;2022-08-30T11:01:34;1.70;;;0.50;;
61487;SDS011;47351;53.326;-6.298;2022-08-30T11:04:38;1.70;;;0.40;;
61487;SDS011;47351;53.326;-6.298;2022-08-30T11:07:30;1.50;;;0.40;;
61487;SDS011;47351;53.326;-6.298;2022-08-30T11:10:16;0.80;;;0.40;;
61487;SDS011;47351;53.326;-6.298;2022-08-30T11:13:02;1.70;;;0.90;;
61487;SDS011;47351;53.326;-6.298;2022-08-30T11:15:51;1.90;;;0.50;;
61487;SDS011;47351;53.326;-6.298;2022-08-30T11:18:51;3.90;;;0.50;;
61487;SDS011;47351;53.326;-6.298;2022-08-30T11:22:10;1.70;;;0.50;;
61487;SDS011;47351;53.326;-6.298;2022-08-30T11:27:40;1.70;;;0.40;;
61487;SDS011;47351;53.326;-6.298;2022-08-30T11:33:29;1.20;;;0.40;;
61487;SDS011;47351;53.326;-6.298;2022-08-30T11:36:58;2.30;;;0.30;;
61487;SDS011;47351;53.326;-6.298;2022-08-30T11:42:44;0.70;;;0.40;;
61487;SDS011;47351;53.326;-6.298;2022-08-30T11:54:45;1.00;;;0.20;;
61487;SDS011;47351;53.326;-6.298;2022-08-30T11:57:29;2.20;;;0.50;;
61487;SDS011;47351;53.326;-6.298;2022-08-30T12:00:07;2.40;;;0.40;;
61487;SDS011;47351;53.326;-6.298;2022-08-30T12:02:48;1.00;;;0.40;;
61487;SDS011;47351;53.326;-6.298;2022-08-30T12:14:33;1.30;;;0.40;;
61487;SDS011;47351;53.326;-6.298;2022-08-30T12:17:12;4.10;;;0.50;;
61487;SDS011;47351;53.326;-6.298;2022-08-30T12:20:21;3.00;;;0.50;;
61487;SDS011;47351;53.326;-6.298;2022-08-30T12:22:54;1.50;;;0.40;;
61487;SDS011;47351;53.326;-6.298;2022-08-30T12:25:39;2.40;;;0.40;;
61487;SDS011;47351;53.326;-6.298;2022-08-30T12:28:13;0.80;;;0.40;;
61487;SDS011;47351;53.326;-6.298;2022-08-30T12:30:48;1.60;;;0.50;;
61487;SDS011;47351;53.326;-6.298;2022-08-30T12:33:24;1.30;;;0.30;;
61487;SDS011;47351;53.326;-6.298;2022-08-30T12:36:06;0.90;;;0.40;;
61487;SDS011;47351;53.326;-6.298;2022-08-30T12:38:40;2.40;;;0.40;;
61487;SDS011;47351;53.326;-6.298;2022-08-30T12:41:16;1.30;;;0.40;;
61487;SDS011;47351;53.326;-6.298;2022-08-30T12:43:49;1.90;;;0.60;;
61487;SDS011;47351;53.326;-6.298;2022-08-30T12:46:18;1.30;;;0.30;;
61487;SDS011;47351;53.326;-6.298;2022-08-30T12:48:48;1.30;;;0.40;;
61487;SDS011;47351;53.326;-6.298;2022-08-30T12:51:27;1.60;;;0.20;;
61487;SDS011;47351;53.326;-6.298;2022-08-30T12:54:28;1.60;;;0.20;;
61487;SDS011;47351;53.326;-6.298;2022-08-30T12:57:00;1.10;;;0.40;;
61487;SDS011;47351;53.326;-6.298;2022-08-30T12:59:58;1.00;;;0.30;;
61487;SDS011;47351;53.326;-6.298;2022-08-30T13:02:41;0.90;;;0.30;;
61487;SDS011;47351;53.326;-6.298;2022-08-30T13:05:41;1.90;;;0.60;;
61487;SDS011;47351;53.326;-6.298;2022-08-30T13:08:23;0.90;;;0.40;;
61487;SDS011;47351;53.326;-6.298;2022-08-30T13:11:02;1.40;;;0.30;;
61487;SDS011;47351;53.326;-6.298;2022-08-30T13:13:39;1.10;;;0.30;;
61487;SDS011;47351;53.326;-6.298;2022-08-30T13:16:21;1.60;;;0.20;;
61487;SDS011;47351;53.326;-6.298;2022-08-30T13:19:17;1.40;;;0.20;;
61487;SDS011;47351;53.326;-6.298;2022-08-30T13:21:55;2.10;;;0.40;;
61487;SDS011;47351;53.326;-6.298;2022-08-30T13:24:25;1.20;;;0.50;;
61487;SDS011;47351;53.326;-6.298;2022-08-30T13:26:55;2.10;;;0.40;;
61487;SDS011;47351;53.326;-6.298;2022-08-30T13:29:30;3.30;;;0.50;;
61487;SDS011;47351;53.326;-6.298;2022-08-30T13:31:59;2.00;;;0.60;;
61487;SDS011;47351;53.326;-6.298;2022-08-30T13:34:31;2.40;;;0.60;;
61487;SDS011;47351;53.326;-6.298;2022-08-30T13:37:04;1.80;;;0.50;;
61487;SDS011;47351;53.326;-6.298;2022-08-30T13:39:57;0.70;;;0.40;;
61487;SDS011;47351;53.326;-6.298;2022-08-30T13:42:31;0.80;;;0.40;;
61487;SDS011;47351;53.326;-6.298;2022-08-30T13:45:02;1.00;;;0.50;;
61487;SDS011;47351;53.326;-6.298;2022-08-30T13:47:52;2.00;;;0.50;;
61487;SDS011;47351;53.326;-6.298;2022-08-30T13:50:22;1.50;;;0.50;;
61487;SDS011;47351;53.326;-6.298;2022-08-30T13:52:53;2.10;;;0.60;;
61487;SDS011;47351;53.326;-6.298;2022-08-30T13:55:24;0.70;;;0.40;;
61487;SDS011;47351;53.326;-6.298;2022-08-30T13:57:54;1.60;;;0.50;;
61487;SDS011;47351;53.326;-6.298;2022-08-30T14:00:24;1.90;;;0.70;;
61487;SDS011;47351;53.326;-6.298;2022-08-30T14:03:04;1.30;;;0.60;;
61487;SDS011;47351;53.326;-6.298;2022-08-30T14:05:34;0.90;;;0.50;;
61487;SDS011;47351;53.326;-6.298;2022-08-30T14:08:26;5.10;;;0.60;;
61487;SDS011;47351;53.326;-6.298;2022-08-30T14:11:17;2.20;;;0.60;;
61487;SDS011;47351;53.326;-6.298;2022-08-30T14:13:49;1.50;;;0.70;;
61487;SDS011;47351;53.326;-6.298;2022-08-30T14:16:40;3.20;;;0.60;;
61487;SDS011;47351;53.326;-6.298;2022-08-30T14:19:10;1.20;;;0.50;;
61487;SDS011;47351;53.326;-6.298;2022-08-30T14:21:41;1.50;;;0.40;;
61487;SDS011;47351;53.326;-6.298;2022-08-30T14:24:18;2.10;;;0.50;;
61487;SDS011;47351;53.326;-6.298;2022-08-30T14:26:50;1.20;;;0.60;;
61487;SDS011;47351;53.326;-6.298;2022-08-30T14:29:21;1.00;;;0.50;;
61487;SDS011;47351;53.326;-6.298;2022-08-30T14:31:55;2.50;;;0.60;;
61487;SDS011;47351;53.326;-6.298;2022-08-30T14:34:28;2.70;;;0.50;;
61487;SDS011;47351;53.326;-6.298;2022-08-30T14:36:59;0.70;;;0.40;;
61487;SDS011;47351;53.326;-6.298;2022-08-30T14:39:27;2.50;;;0.50;;
61487;SDS011;47351;53.326;-6.298;2022-08-30T14:41:59;2.40;;;0.60;;
61487;SDS011;47351;53.326;-6.298;2022-08-30T14:44:30;1.90;;;0.80;;
61487;SDS011;47351;53.326;-6.298;2022-08-30T14:47:20;1.20;;;0.40;;
61487;SDS011;47351;53.326;-6.298;2022-08-30T14:50:02;1.80;;;0.50;;
61487;SDS011;47351;53.326;-6.298;2022-08-30T14:52:35;2.30;;;0.70;;
61487;SDS011;47351;53.326;-6.298;2022-08-30T14:55:13;1.90;;;0.70;;
61487;SDS011;47351;53.326;-6.298;2022-08-30T15:00:14;1.90;;;0.70;;
61487;SDS011;47351;53.326;-6.298;2022-08-30T15:02:46;3.20;;;0.60;;
61487;SDS011;47351;53.326;-6.298;2022-08-30T15:05:15;2.90;;;0.70;;
61487;SDS011;47351;53.326;-6.298;2022-08-30T15:07:53;2.40;;;0.70;;
61487;SDS011;47351;53.326;-6.298;2022-08-30T15:10:28;3.20;;;0.70;;
61487;SDS011;47351;53.326;-6.298;2022-08-30T15:12:59;1.40;;;0.70;;
61487;SDS011;47351;53.326;-6.298;2022-08-30T15:15:35;2.60;;;0.80;;
61487;SDS011;47351;53.326;-6.298;2022-08-30T15:18:05;2.80;;;0.80;;
61487;SDS011;47351;53.326;-6.298;2022-08-30T15:20:34;3.00;;;0.90;;
61487;SDS011;47351;53.326;-6.298;2022-08-30T15:23:07;2.80;;;0.80;;
61487;SDS011;47351;53.326;-6.298;2022-08-30T15:25:37;1.80;;;0.70;;
61487;SDS011;47351;53.326;-6.298;2022-08-30T15:28:08;2.60;;;0.90;;
61487;SDS011;47351;53.326;-6.298;2022-08-30T15:30:37;2.50;;;0.80;;
61487;SDS011;47351;53.326;-6.298;2022-08-30T15:33:09;2.50;;;1.00;;
61487;SDS011;47351;53.326;-6.298;2022-08-30T15:35:38;2.00;;;0.90;;
61487;SDS011;47351;53.326;-6.298;2022-08-30T15:38:07;3.40;;;0.90;;
61487;SDS011;47351;53.326;-6.298;2022-08-30T15:40:38;4.50;;;0.80;;
61487;SDS011;47351;53.326;-6.298;2022-08-30T15:43:08;2.20;;;0.60;;
61487;SDS011;47351;53.326;-6.298;2022-08-30T15:45:37;1.10;;;0.70;;
61487;SDS011;47351;53.326;-6.298;2022-08-30T15:48:06;1.70;;;0.70;;
61487;SDS011;47351;53.326;-6.298;2022-08-30T15:50:35;4.60;;;0.90;;
61487;SDS011;47351;53.326;-6.298;2022-08-30T15:53:07;3.20;;;0.80;;
61487;SDS011;47351;53.326;-6.298;2022-08-30T15:55:36;2.60;;;0.80;;
61487;SDS011;47351;53.326;-6.298;2022-08-30T15:58:05;2.20;;;0.70;;
61487;SDS011;47351;53.326;-6.298;2022-08-30T16:00:34;3.50;;;0.70;;
61487;SDS011;47351;53.326;-6.298;2022-08-30T16:03:10;2.40;;;0.80;;
61487;SDS011;47351;53.326;-6.298;2022-08-30T16:05:40;2.40;;;0.80;;
61487;SDS011;47351;53.326;-6.298;2022-08-30T16:08:09;3.50;;;0.90;;
61487;SDS011;47351;53.326;-6.298;2022-08-30T16:10:38;0.50;;;0.50;;
61487;SDS011;47351;53.326;-6.298;2022-08-30T16:13:09;1.00;;;0.80;;
61487;SDS011;47351;53.326;-6.298;2022-08-30T16:15:38;2.60;;;0.70;;
61487;SDS011;47351;53.326;-6.298;2022-08-30T16:18:10;1.50;;;0.50;;
61487;SDS011;47351;53.326;-6.298;2022-08-30T16:20:39;2.70;;;0.60;;
61487;SDS011;47351;53.326;-6.298;2022-08-30T16:23:09;3.10;;;0.70;;
61487;SDS011;47351;53.326;-6.298;2022-08-30T16:25:38;1.10;;;0.60;;
61487;SDS011;47351;53.326;-6.298;2022-08-30T16:28:08;1.50;;;0.80;;
61487;SDS011;47351;53.326;-6.298;2022-08-30T16:30:37;2.00;;;0.70;;
61487;SDS011;47351;53.326;-6.298;2022-08-30T16:33:06;2.00;;;0.70;;
61487;SDS011;47351;53.326;-6.298;2022-08-30T16:35:35;1.60;;;0.70;;
61487;SDS011;47351;53.326;-6.298;2022-08-30T16:38:04;1.90;;;0.60;;
61487;SDS011;47351;53.326;-6.298;2022-08-30T16:40:34;1.10;;;0.70;;
61487;SDS011;47351;53.326;-6.298;2022-08-30T16:43:03;2.50;;;0.70;;
61487;SDS011;47351;53.326;-6.298;2022-08-30T16:45:44;0.90;;;0.50;;
61487;SDS011;47351;53.326;-6.298;2022-08-30T16:48:15;0.70;;;0.60;;
61487;SDS011;47351;53.326;-6.298;2022-08-30T16:50:44;0.60;;;0.60;;
61487;SDS011;47351;53.326;-6.298;2022-08-30T16:53:16;1.70;;;0.80;;
61487;SDS011;47351;53.326;-6.298;2022-08-30T16:55:45;2.90;;;0.80;;
61487;SDS011;47351;53.326;-6.298;2022-08-30T16:58:17;1.70;;;0.70;;
61487;SDS011;47351;53.326;-6.298;2022-08-30T17:00:51;2.40;;;0.90;;
61487;SDS011;47351;53.326;-6.298;2022-08-30T17:03:20;2.00;;;0.90;;
61487;SDS011;47351;53.326;-6.298;2022-08-30T17:05:49;2.60;;;0.90;;
61487;SDS011;47351;53.326;-6.298;2022-08-30T17:08:44;0.90;;;0.60;;
61487;SDS011;47351;53.326;-6.298;2022-08-30T17:11:13;1.90;;;0.80;;
61487;SDS011;47351;53.326;-6.298;2022-08-30T17:13:45;2.00;;;0.90;;
61487;SDS011;47351;53.326;-6.298;2022-08-30T17:16:17;1.90;;;1.10;;
61487;SDS011;47351;53.326;-6.298;2022-08-30T17:18:54;3.40;;;1.00;;
61487;SDS011;47351;53.326;-6.298;2022-08-30T17:21:30;2.70;;;1.20;;
61487;SDS011;47351;53.326;-6.298;2022-08-30T17:24:04;2.10;;;1.00;;
61487;SDS011;47351;53.326;-6.298;2022-08-30T17:26:54;2.80;;;1.20;;
61487;SDS011;47351;53.326;-6.298;2022-08-30T17:29:27;2.70;;;0.90;;
61487;SDS011;47351;53.326;-6.298;2022-08-30T17:31:57;2.70;;;1.30;;
61487;SDS011;47351;53.326;-6.298;2022-08-30T17:34:26;3.00;;;0.90;;
61487;SDS011;47351;53.326;-6.298;2022-08-30T17:37:10;4.20;;;1.00;;
61487;SDS011;47351;53.326;-6.298;2022-08-30T17:39:39;3.30;;;1.00;;
61487;SDS011;47351;53.326;-6.298;2022-08-30T17:42:08;1.60;;;1.00;;
61487;SDS011;47351;53.326;-6.298;2022-08-30T17:44:40;1.20;;;1.00;;
61487;SDS011;47351;53.326;-6.298;2022-08-30T17:47:13;1.90;;;0.90;;
61487;SDS011;47351;53.326;-6.298;2022-08-30T17:49:44;3.40;;;1.20;;
61487;SDS011;47351;53.326;-6.298;2022-08-30T17:52:14;2.70;;;1.10;;
61487;SDS011;47351;53.326;-6.298;2022-08-30T17:54:50;2.60;;;1.30;;
61487;SDS011;47351;53.326;-6.298;2022-08-30T17:57:40;2.30;;;1.00;;
61487;SDS011;47351;53.326;-6.298;2022-08-30T18:00:29;3.10;;;1.20;;
61487;SDS011;47351;53.326;-6.298;2022-08-30T18:02:58;1.90;;;1.20;;
61487;SDS011;47351;53.326;-6.298;2022-08-30T18:05:27;2.30;;;0.90;;
61487;SDS011;47351;53.326;-6.298;2022-08-30T18:08:07;2.50;;;1.00;;
61487;SDS011;47351;53.326;-6.298;2022-08-30T18:10:42;2.30;;;1.10;;
61487;SDS011;47351;53.326;-6.298;2022-08-30T18:13:32;1.90;;;1.10;;
61487;SDS011;47351;53.326;-6.298;2022-08-30T18:16:01;3.60;;;1.20;;
61487;SDS011;47351;53.326;-6.298;2022-08-30T18:18:43;1.40;;;0.90;;
61487;SDS011;47351;53.326;-6.298;2022-08-30T18:21:18;3.90;;;1.00;;
61487;SDS011;47351;53.326;-6.298;2022-08-30T18:24:09;3.00;;;1.00;;
61487;SDS011;47351;53.326;-6.298;2022-08-30T18:26:41;1.80;;;1.00;;
61487;SDS011;47351;53.326;-6.298;2022-08-30T18:29:39;3.00;;;1.50;;
61487;SDS011;47351;53.326;-6.298;2022-08-30T18:32:12;2.90;;;1.20;;
61487;SDS011;47351;53.326;-6.298;2022-08-30T18:34:43;3.50;;;1.00;;
61487;SDS011;47351;53.326;-6.298;2022-08-30T18:37:32;1.80;;;1.00;;
61487;SDS011;47351;53.326;-6.298;2022-08-30T18:40:02;1.70;;;1.20;;
61487;SDS011;47351;53.326;-6.298;2022-08-30T18:42:37;3.50;;;1.10;;
61487;SDS011;47351;53.326;-6.298;2022-08-30T18:45:08;1.30;;;0.90;;
61487;SDS011;47351;53.326;-6.298;2022-08-30T18:47:52;2.90;;;1.00;;
61487;SDS011;47351;53.326;-6.298;2022-08-30T18:50:49;4.10;;;1.00;;
61487;SDS011;47351;53.326;-6.298;2022-08-30T18:53:21;2.30;;;1.10;;
61487;SDS011;47351;53.326;-6.298;2022-08-30T18:55:55;3.90;;;1.40;;
61487;SDS011;47351;53.326;-6.298;2022-08-30T18:58:46;4.20;;;1.10;;
61487;SDS011;47351;53.326;-6.298;2022-08-30T19:01:19;3.80;;;1.20;;
61487;SDS011;47351;53.326;-6.298;2022-08-30T19:03:50;3.40;;;1.40;;
61487;SDS011;47351;53.326;-6.298;2022-08-30T19:06:39;3.80;;;1.10;;
61487;SDS011;47351;53.326;-6.298;2022-08-30T19:09:17;5.10;;;1.30;;
61487;SDS011;47351;53.326;-6.298;2022-08-30T19:11:46;5.10;;;1.40;;
61487;SDS011;47351;53.326;-6.298;2022-08-30T19:14:15;3.20;;;1.30;;
61487;SDS011;47351;53.326;-6.298;2022-08-30T19:16:52;2.20;;;1.10;;
61487;SDS011;47351;53.326;-6.298;2022-08-30T19:19:31;4.90;;;2.40;;
61487;SDS011;47351;53.326;-6.298;2022-08-30T19:22:14;4.20;;;1.60;;
61487;SDS011;47351;53.326;-6.298;2022-08-30T19:24:45;6.60;;;1.20;;
61487;SDS011;47351;53.326;-6.298;2022-08-30T19:27:36;3.40;;;1.30;;
61487;SDS011;47351;53.326;-6.298;2022-08-30T19:30:27;4.20;;;1.50;;
61487;SDS011;47351;53.326;-6.298;2022-08-30T19:32:59;4.40;;;1.30;;
61487;SDS011;47351;53.326;-6.298;2022-08-30T19:35:31;4.90;;;1.30;;